createdAt,value
2016-02-06T00:00:09.795Z,14.39
2016-02-06T00:01:09.767Z,14.29
2016-02-06T00:02:09.755Z,14.39
2016-02-06T00:03:09.742Z,14.34
2016-02-06T00:04:09.699Z,14.27
2016-02-06T00:05:09.685Z,14.34
2016-02-06T00:06:09.671Z,14.31
2016-02-06T00:07:09.675Z,14.29
2016-02-06T00:08:09.618Z,14.37
2016-02-06T00:09:09.605Z,14.27
2016-02-06T00:10:09.576Z,14.28
2016-02-06T00:11:09.548Z,14.25
2016-02-06T00:12:09.534Z,14.28
2016-02-06T00:13:09.522Z,14.28
2016-02-06T00:14:09.510Z,14.35
2016-02-06T00:15:09.466Z,14.28
2016-02-06T00:16:09.438Z,14.25
2016-02-06T00:17:09.441Z,14.32
2016-02-06T00:18:09.411Z,14.28
2016-02-06T00:19:09.383Z,14.28
2016-02-06T00:20:09.512Z,14.28
2016-02-06T00:21:09.343Z,14.21
2016-02-06T00:22:09.314Z,14.24
2016-02-06T00:23:09.301Z,14.32
2016-02-06T00:24:09.273Z,14.31
2016-02-06T00:25:09.276Z,14.27
2016-02-06T00:26:09.216Z,14.29
2016-02-06T00:27:09.204Z,14.27
2016-02-06T00:28:09.190Z,14.25
2016-02-06T00:29:09.162Z,14.27
2016-02-06T00:30:09.148Z,14.19
2016-02-06T00:31:09.121Z,14.28
2016-02-06T00:32:09.092Z,14.28
2016-02-06T00:33:09.096Z,14.29
2016-02-06T00:34:09.072Z,14.32
2016-02-06T00:35:09.028Z,14.28
2016-02-06T00:36:08.999Z,14.27
2016-02-06T00:37:09.018Z,14.31
2016-02-06T00:38:08.990Z,14.21
2016-02-06T00:39:08.930Z,14.21
2016-02-06T00:40:08.917Z,14.29
2016-02-06T00:41:08.904Z,14.25
2016-02-06T00:42:08.875Z,14.31
2016-02-06T00:43:08.848Z,14.28
2016-02-06T00:44:08.834Z,14.25
2016-02-06T00:45:08.806Z,14.27
2016-02-06T00:46:08.796Z,14.32
2016-02-06T00:47:08.799Z,14.27
2016-02-06T00:48:08.739Z,14.34
2016-02-06T00:49:08.726Z,14.24
2016-02-06T00:50:08.557Z,14.32
2016-02-06T00:51:08.716Z,14.32
2016-02-06T00:52:08.656Z,14.32
2016-02-06T00:53:08.643Z,14.35
2016-02-06T00:54:08.631Z,14.31
2016-02-06T00:55:08.602Z,14.34
2016-02-06T00:56:08.574Z,14.35
2016-02-06T00:57:08.546Z,14.25
2016-02-06T00:58:08.548Z,14.35
2016-02-06T00:59:08.519Z,14.25
2016-02-06T01:00:08.491Z,14.32
2016-02-06T01:01:08.462Z,14.31
2016-02-06T01:02:08.449Z,14.25
2016-02-06T01:03:08.436Z,14.31
2016-02-06T01:04:08.407Z,14.24
2016-02-06T01:05:08.368Z,14.27
2016-02-06T01:06:08.356Z,14.31
2016-02-06T01:07:08.329Z,14.29
2016-02-06T01:08:08.347Z,14.29
2016-02-06T01:09:08.288Z,14.37
2016-02-06T01:10:08.275Z,14.25
2016-02-06T01:11:08.278Z,14.29
2016-02-06T01:12:08.249Z,14.25
2016-02-06T01:13:08.220Z,14.24
2016-02-06T01:14:08.193Z,14.29
2016-02-06T01:15:08.148Z,14.28
2016-02-06T01:16:08.120Z,14.27
2016-02-06T01:17:08.111Z,14.29
2016-02-06T01:18:08.364Z,14.28
2016-02-06T01:19:08.055Z,14.24
2016-02-06T01:20:08.041Z,14.32
2016-02-06T01:21:08.419Z,14.27
2016-02-06T01:22:08.000Z,14.29
2016-02-06T01:23:08.112Z,14.28
2016-02-06T01:24:07.959Z,14.24
2016-02-06T01:25:07.946Z,14.25
2016-02-06T01:26:07.917Z,14.25
2016-02-06T01:27:07.906Z,14.27
2016-02-06T01:28:07.878Z,14.16
2016-02-06T01:29:07.848Z,14.24
2016-02-06T01:30:07.851Z,14.28
2016-02-06T01:31:07.807Z,14.27
2016-02-06T01:32:07.778Z,14.19
2016-02-06T01:33:07.773Z,14.29
2016-02-06T01:34:07.792Z,14.25
2016-02-06T01:35:07.733Z,14.19
2016-02-06T01:36:07.704Z,14.19
2016-02-06T01:37:07.675Z,14.28
2016-02-06T01:38:07.678Z,14.24
2016-02-06T01:39:07.634Z,14.24
2016-02-06T01:40:07.606Z,14.27
2016-02-06T01:41:07.608Z,14.16
2016-02-06T01:42:07.564Z,14.19
2016-02-06T01:43:07.566Z,14.2
2016-02-06T01:44:07.539Z,14.2
2016-02-06T01:45:07.494Z,14.2
2016-02-06T01:46:07.497Z,14.25
2016-02-06T01:47:07.452Z,14.19
2016-02-06T01:48:07.440Z,14.2
2016-02-06T01:49:07.411Z,14.19
2016-02-06T01:50:07.383Z,14.2
2016-02-06T01:51:07.385Z,14.25
2016-02-06T01:52:07.357Z,14.17
2016-02-06T01:53:07.328Z,14.21
2016-02-06T01:54:07.299Z,14.2
2016-02-06T01:55:07.318Z,14.17
2016-02-06T01:56:07.258Z,14.2
2016-02-06T01:57:07.245Z,14.21
2016-02-06T01:58:07.217Z,14.25
2016-02-06T01:59:07.187Z,14.21
2016-02-06T02:00:07.177Z,14.19
2016-02-06T02:01:07.163Z,14.21
2016-02-06T02:02:07.166Z,14.29
2016-02-06T02:03:07.106Z,14.19
2016-02-06T02:04:07.078Z,14.16
2016-02-06T02:05:07.081Z,14.24
2016-02-06T02:06:07.459Z,14.19
2016-02-06T02:07:07.024Z,14.27
2016-02-06T02:08:07.011Z,14.24
2016-02-06T02:09:06.982Z,14.21
2016-02-06T02:10:06.955Z,14.14
2016-02-06T02:11:06.925Z,14.2
2016-02-06T02:12:06.944Z,14.19
2016-02-06T02:13:06.886Z,14.25
2016-02-06T02:14:06.874Z,14.21
2016-02-06T02:15:06.970Z,14.14
2016-02-06T02:16:06.816Z,14.19
2016-02-06T02:17:06.788Z,14.2
2016-02-06T02:18:06.774Z,14.14
2016-02-06T02:19:06.762Z,14.2
2016-02-06T02:20:06.734Z,14.19
2016-02-06T02:21:06.721Z,14.2
2016-02-06T02:22:06.707Z,14.24
2016-02-06T02:23:06.663Z,14.17
2016-02-06T02:24:06.650Z,14.2
2016-02-06T02:25:06.637Z,14.19
2016-02-06T02:26:06.598Z,14.24
2016-02-06T02:27:06.569Z,14.19
2016-02-06T02:28:06.556Z,14.17
2016-02-06T02:29:06.543Z,14.19
2016-02-06T02:30:06.514Z,14.2
2016-02-06T02:31:06.475Z,14.24
2016-02-06T02:32:06.479Z,14.19
2016-02-06T02:33:06.467Z,14.19
2016-02-06T02:34:06.420Z,14.21
2016-02-06T02:35:06.392Z,14.17
2016-02-06T02:36:06.378Z,14.16
2016-02-06T02:37:06.365Z,14.21
2016-02-06T02:38:06.336Z,14.17
2016-02-06T02:39:06.309Z,14.12
2016-02-06T02:40:06.296Z,14.09
2016-02-06T02:41:06.269Z,14.17
2016-02-06T02:42:06.240Z,14.24
2016-02-06T02:43:06.227Z,14.19
2016-02-06T02:44:06.198Z,14.16
2016-02-06T02:45:06.170Z,14.16
2016-02-06T02:46:06.157Z,14.12
2016-02-06T02:47:06.161Z,14.16
2016-02-06T02:48:06.116Z,14.16
2016-02-06T02:49:06.088Z,14.1
2016-02-06T02:50:06.074Z,14.17
2016-02-06T02:51:06.062Z,14.13
2016-02-06T02:52:06.018Z,14.07
2016-02-06T02:53:06.005Z,14.02
2016-02-06T02:54:05.976Z,14.07
2016-02-06T02:55:05.963Z,14.07
2016-02-06T02:56:05.934Z,14.12
2016-02-06T02:57:05.907Z,14.07
2016-02-06T02:58:05.893Z,14.13
2016-02-06T02:59:05.866Z,14.07
2016-02-06T03:00:05.868Z,14.07
2016-02-06T03:01:05.824Z,14.07
2016-02-06T03:02:05.811Z,14.02
2016-02-06T03:03:05.830Z,14.04
2016-02-06T03:04:05.774Z,14.06
2016-02-06T03:05:05.746Z,14.04
2016-02-06T03:06:05.717Z,14.06
2016-02-06T03:07:05.831Z,14.02
2016-02-06T03:08:05.694Z,14.16
2016-02-06T03:09:05.649Z,14.06
2016-02-06T03:10:05.620Z,14.06
2016-02-06T03:11:05.608Z,14.06
2016-02-06T03:12:05.580Z,14.06
2016-02-06T03:13:05.567Z,14.06
2016-02-06T03:14:05.539Z,14.07
2016-02-06T03:15:05.511Z,14.07
2016-02-06T03:16:05.498Z,14.1
2016-02-06T03:17:05.471Z,14.12
2016-02-06T03:18:05.676Z,14.04
2016-02-06T03:19:05.444Z,14.1
2016-02-06T03:20:05.401Z,14.02
2016-02-06T03:21:05.389Z,14.06
2016-02-06T03:22:05.360Z,14.09
2016-02-06T03:23:05.348Z,14.1
2016-02-06T03:24:05.350Z,13.99
2016-02-06T03:25:05.322Z,14.04
2016-02-06T03:26:05.292Z,14.02
2016-02-06T03:27:05.249Z,13.99
2016-02-06T03:28:05.237Z,13.99
2016-02-06T03:29:05.224Z,14.02
2016-02-06T03:30:05.179Z,14.02
2016-02-06T03:31:05.182Z,13.98
2016-02-06T03:32:05.138Z,14.01
2016-02-06T03:33:05.112Z,14.01
2016-02-06T03:34:05.099Z,13.99
2016-02-06T03:35:05.071Z,14.06
2016-02-06T03:36:05.042Z,14.06
2016-02-06T03:37:05.030Z,14.01
2016-02-06T03:38:05.048Z,14.04
2016-02-06T03:39:04.972Z,14.04
2016-02-06T03:40:04.975Z,14.01
2016-02-06T03:41:04.934Z,13.92
2016-02-06T03:42:04.906Z,13.99
2016-02-06T03:43:04.893Z,13.92
2016-02-06T03:44:04.879Z,13.98
2016-02-06T03:45:04.851Z,13.96
2016-02-06T03:46:04.823Z,14.02
2016-02-06T03:47:04.809Z,13.99
2016-02-06T03:48:04.781Z,13.99
2016-02-06T03:49:04.784Z,14.01
2016-02-06T03:50:04.739Z,13.98
2016-02-06T03:51:04.711Z,13.91
2016-02-06T03:52:04.698Z,14.02
2016-02-06T03:53:04.672Z,13.92
2016-02-06T03:54:04.659Z,13.99
2016-02-06T03:55:04.616Z,13.98
2016-02-06T03:56:04.602Z,14.01
2016-02-06T03:57:04.589Z,13.99
2016-02-06T03:58:04.561Z,14.01
2016-02-06T03:59:04.532Z,13.98
2016-02-06T04:00:04.519Z,13.94
2016-02-06T04:01:04.509Z,13.89
2016-02-06T04:02:04.468Z,13.94
2016-02-06T04:03:04.439Z,13.89
2016-02-06T04:04:04.427Z,13.94
2016-02-06T04:05:04.397Z,13.92
2016-02-06T04:06:04.388Z,14.04
2016-02-06T04:07:04.359Z,13.94
2016-02-06T04:08:04.347Z,13.98
2016-02-06T04:09:04.318Z,13.91
2016-02-06T04:10:04.539Z,13.96
2016-02-06T04:11:04.277Z,13.96
2016-02-06T04:12:04.248Z,13.96
2016-02-06T04:13:04.219Z,13.89
2016-02-06T04:14:04.209Z,13.91
2016-02-06T04:15:04.195Z,13.91
2016-02-06T04:16:04.151Z,13.95
2016-02-06T04:17:04.138Z,13.88
2016-02-06T04:18:04.110Z,13.92
2016-02-06T04:19:04.084Z,13.98
2016-02-06T04:20:04.071Z,13.94
2016-02-06T04:21:04.042Z,13.95
2016-02-06T04:22:04.047Z,13.89
2016-02-06T04:23:04.002Z,13.92
2016-02-06T04:24:03.975Z,13.89
2016-02-06T04:25:03.992Z,13.92
2016-02-06T04:26:03.933Z,13.92
2016-02-06T04:27:03.919Z,13.91
2016-02-06T04:28:03.891Z,13.92
2016-02-06T04:29:03.878Z,13.88
2016-02-06T04:30:03.836Z,13.91
2016-02-06T04:31:03.854Z,13.92
2016-02-06T04:32:03.810Z,13.88
2016-02-06T04:33:03.782Z,13.92
2016-02-06T04:34:03.754Z,13.87
2016-02-06T04:35:03.724Z,13.88
2016-02-06T04:36:03.727Z,13.89
2016-02-06T04:37:03.683Z,13.91
2016-02-06T04:38:03.671Z,13.88
2016-02-06T04:39:03.642Z,13.87
2016-02-06T04:40:03.661Z,13.87
2016-02-06T04:41:03.601Z,13.88
2016-02-06T04:42:03.573Z,13.84
2016-02-06T04:43:03.560Z,13.88
2016-02-06T04:44:03.532Z,13.92
2016-02-06T04:45:03.518Z,13.87
2016-02-06T04:46:03.490Z,13.83
2016-02-06T04:47:03.477Z,13.92
2016-02-06T04:48:03.449Z,13.91
2016-02-06T04:49:03.421Z,13.87
2016-02-06T04:50:03.408Z,13.89
2016-02-06T04:51:03.379Z,13.89
2016-02-06T04:52:03.368Z,13.88
2016-02-06T04:53:03.340Z,13.88
2016-02-06T04:54:03.326Z,13.87
2016-02-06T04:55:03.285Z,13.88
2016-02-06T04:56:03.257Z,13.87
2016-02-06T04:57:03.243Z,13.92
2016-02-06T04:58:03.215Z,13.92
2016-02-06T04:59:03.213Z,13.84
2016-02-06T05:00:03.169Z,13.91
2016-02-06T05:01:03.203Z,13.92
2016-02-06T05:02:03.284Z,13.95
2016-02-06T05:03:03.114Z,13.89
2016-02-06T05:04:03.087Z,13.87
2016-02-06T05:05:03.057Z,13.87
2016-02-06T05:06:03.045Z,13.91
2016-02-06T05:07:03.031Z,13.88
2016-02-06T05:08:03.005Z,13.91
2016-02-06T05:09:02.976Z,13.84
2016-02-06T05:10:02.948Z,13.92
2016-02-06T05:11:02.935Z,13.83
2016-02-06T05:12:02.907Z,13.8
2016-02-06T05:13:03.097Z,13.92
2016-02-06T05:14:02.881Z,13.92
2016-02-06T05:15:02.853Z,13.79
2016-02-06T05:16:02.825Z,13.87
2016-02-06T05:17:02.811Z,13.95
2016-02-06T05:18:02.783Z,13.89
2016-02-06T05:19:02.738Z,13.92
2016-02-06T05:20:02.741Z,13.94
2016-02-06T05:21:02.698Z,13.91
2016-02-06T05:22:02.684Z,13.87
2016-02-06T05:23:02.672Z,13.76
2016-02-06T05:24:02.628Z,13.83
2016-02-06T05:25:02.615Z,13.92
2016-02-06T05:26:02.590Z,13.87
2016-02-06T05:27:02.576Z,13.87
2016-02-06T05:28:02.548Z,13.87
2016-02-06T05:29:02.531Z,13.83
2016-02-06T05:30:02.503Z,13.74
2016-02-06T05:31:02.490Z,13.94
2016-02-06T05:32:02.445Z,13.87
2016-02-06T05:33:02.432Z,13.94
2016-02-06T05:34:02.406Z,13.8
2016-02-06T05:35:02.378Z,13.92
2016-02-06T05:36:02.381Z,13.74
2016-02-06T05:37:02.351Z,13.83
2016-02-06T05:38:02.338Z,13.89
2016-02-06T05:39:02.294Z,13.88
2016-02-06T05:40:02.267Z,13.81
2016-02-06T05:41:02.256Z,13.81
2016-02-06T05:42:02.242Z,13.84
2016-02-06T05:43:02.245Z,13.87
2016-02-06T05:44:02.186Z,13.87
2016-02-06T05:45:02.204Z,13.83
2016-02-06T05:46:02.128Z,13.83
2016-02-06T05:47:02.117Z,13.87
2016-02-06T05:48:02.088Z,13.79
2016-02-06T05:49:02.076Z,13.84
2016-02-06T05:50:02.048Z,13.87
2016-02-06T05:51:02.019Z,13.91
2016-02-06T05:52:02.006Z,13.91
2016-02-06T05:53:01.977Z,13.79
2016-02-06T05:54:01.951Z,13.81
2016-02-06T05:55:01.938Z,13.8
2016-02-06T05:56:01.909Z,13.8
2016-02-06T05:57:01.897Z,13.77
2016-02-06T05:58:01.867Z,13.79
2016-02-06T05:59:01.853Z,13.73
2016-02-06T06:00:01.822Z,13.76
2016-02-06T06:01:01.809Z,13.76
2016-02-06T06:02:01.767Z,13.83
2016-02-06T06:03:01.753Z,13.8
2016-02-06T06:04:01.725Z,13.8
2016-02-06T06:05:01.993Z,13.76
2016-02-06T06:06:01.683Z,13.74
2016-02-06T06:07:01.655Z,13.76
2016-02-06T06:08:01.642Z,13.84
2016-02-06T06:09:01.613Z,13.77
2016-02-06T06:10:01.710Z,13.79
2016-02-06T06:11:01.587Z,13.81
2016-02-06T06:12:01.559Z,13.8
2016-02-06T06:13:01.530Z,13.76
2016-02-06T06:14:01.502Z,13.77
2016-02-06T06:15:01.489Z,13.76
2016-02-06T06:16:01.476Z,13.76
2016-02-06T06:17:01.447Z,13.73
2016-02-06T06:18:01.435Z,13.81
2016-02-06T06:19:01.390Z,13.81
2016-02-06T06:20:01.365Z,13.77
2016-02-06T06:21:01.351Z,13.79
2016-02-06T06:22:01.324Z,13.76
2016-02-06T06:23:01.327Z,13.77
2016-02-06T06:24:01.283Z,13.74
2016-02-06T06:25:01.254Z,13.77
2016-02-06T06:26:01.241Z,13.71
2016-02-06T06:27:01.213Z,13.77
2016-02-06T06:28:01.189Z,13.77
2016-02-06T06:29:01.159Z,13.74
2016-02-06T06:30:01.151Z,13.77
2016-02-06T06:31:01.121Z,13.83
2016-02-06T06:32:01.109Z,13.79
2016-02-06T06:33:01.080Z,13.83
2016-02-06T06:34:01.052Z,13.76
2016-02-06T06:35:01.023Z,13.77
2016-02-06T06:36:01.010Z,13.77
2016-02-06T06:37:00.997Z,13.83
2016-02-06T06:38:00.968Z,13.76
2016-02-06T06:39:00.940Z,13.74
2016-02-06T06:40:00.943Z,13.69
2016-02-06T06:41:00.899Z,13.76
2016-02-06T06:42:00.887Z,13.81
2016-02-06T06:43:00.858Z,13.71
2016-02-06T06:44:00.674Z,13.76
2016-02-06T06:45:00.801Z,13.74
2016-02-06T06:46:00.804Z,13.76
2016-02-06T06:47:00.759Z,13.79
2016-02-06T06:48:00.735Z,13.81
2016-02-06T06:49:00.753Z,13.73
2016-02-06T06:50:00.693Z,13.74
2016-02-06T06:51:00.711Z,13.74
2016-02-06T06:52:00.653Z,13.77
2016-02-06T06:53:00.640Z,13.76
2016-02-06T06:54:00.596Z,13.77
2016-02-06T06:55:00.583Z,13.77
2016-02-06T06:56:00.571Z,13.73
2016-02-06T06:57:00.793Z,13.88
2016-02-06T06:58:00.530Z,13.74
2016-02-06T06:59:00.485Z,13.84
2016-02-06T07:00:00.473Z,13.77
2016-02-06T07:01:00.439Z,13.71
2016-02-06T07:02:00.551Z,13.74
2016-02-06T07:03:00.398Z,13.77
2016-02-06T07:04:00.387Z,13.69
2016-02-06T07:05:00.358Z,13.73
2016-02-06T07:06:00.345Z,13.74
2016-02-06T07:07:00.300Z,13.8
2016-02-06T07:08:00.289Z,13.71
2016-02-06T07:09:00.260Z,13.74
2016-02-06T07:10:00.248Z,13.69
2016-02-06T07:11:00.234Z,13.69
2016-02-06T07:12:00.206Z,13.77
2016-02-06T07:13:00.209Z,13.74
2016-02-06T07:14:00.166Z,13.73
2016-02-06T07:15:00.137Z,13.77
2016-02-06T07:16:00.108Z,13.76
2016-02-06T07:17:00.095Z,13.69
2016-02-06T07:18:00.067Z,13.74
2016-02-06T07:19:00.038Z,13.67
2016-02-06T07:20:00.073Z,13.74
2016-02-06T07:20:59.997Z,13.81
2016-02-06T07:21:59.985Z,13.67
2016-02-06T07:22:59.956Z,13.73
2016-02-06T07:23:59.944Z,13.77
2016-02-06T07:24:59.899Z,13.65
2016-02-06T07:25:59.887Z,13.77
2016-02-06T07:26:59.893Z,13.76
2016-02-06T07:27:59.863Z,13.77
2016-02-06T07:28:59.819Z,13.77
2016-02-06T07:29:59.793Z,13.76
2016-02-06T07:30:59.779Z,13.8
2016-02-06T07:31:59.750Z,13.7
2016-02-06T07:32:59.741Z,13.77
2016-02-06T07:33:59.713Z,13.7
2016-02-06T07:34:59.685Z,13.77
2016-02-06T07:35:59.688Z,13.62
2016-02-06T07:36:59.643Z,13.79
2016-02-06T07:37:59.615Z,13.81
2016-02-06T07:38:59.602Z,13.76
2016-02-06T07:39:59.589Z,13.67
2016-02-06T07:40:59.560Z,13.69
2016-02-06T07:41:59.532Z,13.74
2016-02-06T07:42:59.503Z,13.65
2016-02-06T07:43:59.490Z,13.73
2016-02-06T07:44:59.466Z,13.77
2016-02-06T07:45:59.452Z,13.67
2016-02-06T07:46:59.424Z,13.7
2016-02-06T07:47:59.411Z,13.76
2016-02-06T07:48:59.367Z,13.77
2016-02-06T07:49:59.372Z,13.67
2016-02-06T07:50:59.329Z,13.77
2016-02-06T07:51:59.302Z,13.67
2016-02-06T07:52:59.257Z,13.69
2016-02-06T07:53:59.415Z,13.77
2016-02-06T07:54:59.199Z,13.76
2016-02-06T07:55:59.139Z,13.73
2016-02-06T07:56:59.117Z,13.71
2016-02-06T07:57:58.926Z,13.8
2016-02-06T07:58:59.063Z,13.7
2016-02-06T07:59:59.032Z,13.77
2016-02-06T08:00:59.013Z,13.76
2016-02-06T08:01:58.982Z,13.76
2016-02-06T08:02:58.953Z,13.81
2016-02-06T08:03:58.923Z,13.77
2016-02-06T08:04:59.144Z,13.76
2016-02-06T08:05:58.879Z,13.87
2016-02-06T08:06:58.849Z,13.8
2016-02-06T08:07:58.822Z,13.91
2016-02-06T08:08:58.808Z,13.8
2016-02-06T08:09:58.779Z,13.81
2016-02-06T08:10:58.765Z,13.79
2016-02-06T08:11:58.736Z,13.83
2016-02-06T08:12:58.738Z,13.79
2016-02-06T08:13:58.694Z,13.81
2016-02-06T08:14:58.681Z,13.88
2016-02-06T08:15:58.652Z,13.8
2016-02-06T08:16:58.639Z,13.88
2016-02-06T08:17:58.595Z,13.81
2016-02-06T08:18:58.581Z,13.83
2016-02-06T08:19:59.281Z,13.83
2016-02-06T08:20:58.410Z,13.81
2016-02-06T08:21:58.563Z,13.94
2016-02-06T08:22:58.547Z,13.92
2016-02-06T08:23:58.644Z,13.8
2016-02-06T08:24:58.443Z,13.87
2016-02-06T08:25:58.416Z,13.92
2016-02-06T08:26:58.418Z,13.91
2016-02-06T08:27:58.436Z,13.89
2016-02-06T08:28:58.376Z,13.84
2016-02-06T08:29:58.332Z,13.84
2016-02-06T08:30:58.319Z,13.89
2016-02-06T08:31:58.297Z,13.94
2016-02-06T08:32:58.283Z,13.89
2016-02-06T08:33:58.254Z,13.84
2016-02-06T08:34:58.242Z,13.83
2016-02-06T08:35:58.199Z,13.87
2016-02-06T08:36:58.185Z,13.91
2016-02-06T08:37:58.172Z,13.91
2016-02-06T08:38:58.127Z,13.88
2016-02-06T08:39:58.130Z,13.95
2016-02-06T08:40:58.087Z,13.88
2016-02-06T08:41:58.067Z,13.95
2016-02-06T08:42:58.069Z,13.99
2016-02-06T08:43:58.024Z,13.89
2016-02-06T08:44:58.027Z,13.98
2016-02-06T08:45:57.984Z,13.91
2016-02-06T08:46:57.974Z,13.98
2016-02-06T08:47:57.930Z,14.04
2016-02-06T08:48:57.947Z,13.92
2016-02-06T08:49:57.935Z,13.99
2016-02-06T08:50:58.063Z,13.99
2016-02-06T08:51:57.879Z,14.01
2016-02-06T08:52:57.835Z,14.04
2016-02-06T08:53:57.838Z,13.98
2016-02-06T08:54:57.796Z,14.09
2016-02-06T08:55:57.768Z,13.99
2016-02-06T08:56:57.756Z,14.04
2016-02-06T08:57:57.726Z,14.04
2016-02-06T08:58:57.714Z,13.98
2016-02-06T08:59:57.685Z,14.12
2016-02-06T09:00:57.672Z,14.02
2016-02-06T09:01:57.648Z,14.04
2016-02-06T09:02:57.620Z,14.06
2016-02-06T09:03:57.611Z,14.02
2016-02-06T09:04:57.588Z,14.04
2016-02-06T09:05:57.560Z,14.06
2016-02-06T09:06:57.532Z,14.06
2016-02-06T09:07:57.519Z,14.06
2016-02-06T09:08:57.334Z,14.1
2016-02-06T09:09:57.479Z,14.1
2016-02-06T09:10:57.451Z,14.06
2016-02-06T09:11:57.421Z,14.09
2016-02-06T09:12:57.440Z,14.07
2016-02-06T09:13:57.380Z,14.04
2016-02-06T09:14:57.399Z,14.06
2016-02-06T09:15:57.339Z,14.1
2016-02-06T09:16:57.186Z,14.14
2016-02-06T09:17:57.299Z,14.2
2016-02-06T09:18:57.285Z,14.24
2016-02-06T09:19:57.257Z,14.21
2016-02-06T09:20:57.235Z,14.2
2016-02-06T09:21:57.237Z,14.19
2016-02-06T09:22:57.193Z,14.19
2016-02-06T09:23:57.180Z,14.24
2016-02-06T09:24:57.167Z,14.19
2016-02-06T09:25:57.124Z,14.2
2016-02-06T09:26:57.111Z,14.29
2016-02-06T09:27:57.083Z,14.16
2016-02-06T09:28:57.070Z,14.24
2016-02-06T09:29:57.042Z,14.31
2016-02-06T09:30:57.045Z,14.29
2016-02-06T09:31:57.062Z,14.31
2016-02-06T09:32:56.988Z,14.29
2016-02-06T09:33:56.959Z,14.31
2016-02-06T09:34:56.931Z,14.35
2016-02-06T09:35:56.919Z,14.27
2016-02-06T09:36:56.890Z,14.31
2016-02-06T09:37:56.862Z,14.32
2016-02-06T09:38:56.880Z,14.28
2016-02-06T09:39:56.820Z,14.28
2016-02-06T09:40:56.824Z,14.34
2016-02-06T09:41:56.794Z,14.37
2016-02-06T09:42:56.751Z,14.37
2016-02-06T09:43:56.739Z,14.35
2016-02-06T09:44:56.742Z,14.35
2016-02-06T09:45:56.697Z,14.39
2016-02-06T09:46:56.684Z,14.32
2016-02-06T09:47:56.828Z,14.38
2016-02-06T09:48:56.644Z,14.31
2016-02-06T09:49:56.630Z,14.34
2016-02-06T09:50:56.603Z,14.42
2016-02-06T09:51:56.573Z,14.34
2016-02-06T09:52:56.562Z,14.38
2016-02-06T09:53:56.533Z,14.43
2016-02-06T09:54:56.364Z,14.39
2016-02-06T09:55:56.491Z,14.37
2016-02-06T09:56:56.494Z,14.44
2016-02-06T09:57:56.450Z,14.47
2016-02-06T09:58:56.686Z,14.5
2016-02-06T09:59:56.470Z,14.47
2016-02-06T10:00:56.395Z,14.39
2016-02-06T10:01:56.350Z,14.49
2016-02-06T10:02:56.346Z,14.44
2016-02-06T10:03:56.316Z,14.43
2016-02-06T10:04:56.288Z,14.39
2016-02-06T10:05:56.275Z,14.44
2016-02-06T10:06:56.246Z,14.44
2016-02-06T10:07:56.234Z,14.43
2016-02-06T10:08:56.221Z,14.56
2016-02-06T10:09:56.208Z,14.47
2016-02-06T10:10:56.164Z,14.6
2016-02-06T10:11:56.151Z,14.49
2016-02-06T10:12:56.123Z,14.5
2016-02-06T10:13:56.110Z,14.52
2016-02-06T10:14:55.926Z,14.53
2016-02-06T10:15:56.069Z,14.54
2016-02-06T10:16:56.044Z,14.5
2016-02-06T10:17:56.031Z,14.5
2016-02-06T10:18:56.003Z,14.54
2016-02-06T10:19:55.974Z,14.57
2016-02-06T10:20:55.960Z,14.53
2016-02-06T10:21:55.936Z,14.56
2016-02-06T10:22:55.924Z,14.54
2016-02-06T10:23:55.895Z,14.54
2016-02-06T10:24:55.882Z,14.54
2016-02-06T10:25:55.853Z,14.56
2016-02-06T10:26:55.855Z,14.56
2016-02-06T10:27:55.984Z,14.54
2016-02-06T10:28:55.815Z,14.56
2016-02-06T10:29:55.771Z,14.57
2016-02-06T10:30:55.759Z,14.6
2016-02-06T10:31:55.731Z,14.62
2016-02-06T10:32:55.733Z,14.62
2016-02-06T10:33:55.689Z,14.68
2016-02-06T10:34:55.661Z,14.64
2016-02-06T10:35:55.648Z,14.71
2016-02-06T10:36:55.620Z,14.67
2016-02-06T10:37:55.608Z,14.71
2016-02-06T10:38:55.578Z,14.69
2016-02-06T10:39:55.613Z,14.86
2016-02-06T10:40:55.552Z,14.81
2016-02-06T10:41:55.524Z,14.8
2016-02-06T10:42:55.497Z,14.78
2016-02-06T10:43:55.484Z,14.88
2016-02-06T10:44:55.533Z,14.81
2016-02-06T10:45:55.442Z,14.81
2016-02-06T10:46:55.569Z,14.81
2016-02-06T10:47:55.560Z,14.84
2016-02-06T10:48:55.377Z,14.8
2016-02-06T10:49:55.379Z,14.83
2016-02-06T10:50:55.522Z,14.71
2016-02-06T10:51:55.322Z,14.81
2016-02-06T10:52:55.481Z,14.74
2016-02-06T10:53:55.344Z,14.75
2016-02-06T10:54:55.283Z,14.78
2016-02-06T10:55:55.381Z,14.87
2016-02-06T10:56:55.227Z,14.88
2016-02-06T10:57:55.183Z,14.93
2016-02-06T10:58:55.170Z,14.93
2016-02-06T10:59:55.146Z,14.98
2016-02-06T11:00:55.242Z,14.94
2016-02-06T11:01:55.120Z,14.9
2016-02-06T11:02:55.107Z,14.93
2016-02-06T11:03:55.080Z,14.93
2016-02-06T11:04:55.066Z,14.84
2016-02-06T11:05:55.054Z,14.93
2016-02-06T11:06:55.009Z,14.9
2016-02-06T11:07:54.981Z,14.91
2016-02-06T11:08:54.971Z,14.94
2016-02-06T11:09:54.943Z,14.99
2016-02-06T11:10:54.913Z,14.99
2016-02-06T11:11:54.949Z,14.95
2016-02-06T11:12:54.888Z,15.02
2016-02-06T11:13:54.860Z,15.03
2016-02-06T11:14:54.847Z,15.06
2016-02-06T11:15:54.819Z,15.03
2016-02-06T11:16:54.805Z,15.05
2016-02-06T11:17:54.777Z,15.05
2016-02-06T11:18:54.873Z,15.06
2016-02-06T11:19:54.736Z,15.05
2016-02-06T11:20:54.738Z,14.99
2016-02-06T11:21:54.694Z,15.01
2016-02-06T11:22:54.681Z,15.01
2016-02-06T11:23:54.653Z,15.06
2016-02-06T11:24:54.641Z,15.09
2016-02-06T11:25:54.456Z,15.06
2016-02-06T11:26:54.599Z,15.02
2016-02-06T11:27:54.567Z,15.01
2016-02-06T11:28:54.553Z,15.05
2016-02-06T11:29:54.529Z,15.06
2016-02-06T11:30:54.515Z,15.02
2016-02-06T11:31:54.487Z,15.09
2016-02-06T11:32:54.473Z,15.12
2016-02-06T11:33:54.445Z,15.11
2016-02-06T11:34:54.449Z,15.23
2016-02-06T11:35:54.404Z,15.3
2016-02-06T11:36:54.395Z,15.21
2016-02-06T11:37:54.366Z,15.27
2016-02-06T11:38:54.339Z,15.42
2016-02-06T11:39:54.326Z,15.45
2016-02-06T11:40:54.297Z,15.56
2016-02-06T11:41:54.284Z,15.6
2016-02-06T11:42:54.286Z,15.61
2016-02-06T11:43:54.243Z,15.51
2016-02-06T11:44:54.246Z,15.66
2016-02-06T11:45:54.202Z,15.57
2016-02-06T11:46:54.188Z,15.54
2016-02-06T11:47:54.393Z,15.52
2016-02-06T11:48:54.147Z,15.57
2016-02-06T11:49:54.135Z,15.54
2016-02-06T11:50:54.106Z,15.59
2016-02-06T11:51:54.078Z,15.61
2016-02-06T11:52:54.189Z,15.61
2016-02-06T11:53:54.052Z,15.67
2016-02-06T11:54:54.024Z,15.59
2016-02-06T11:55:54.010Z,15.63
2016-02-06T11:56:53.982Z,15.57
2016-02-06T11:57:53.969Z,15.54
2016-02-06T11:58:53.988Z,15.59
2016-02-06T11:59:53.960Z,15.59
2016-02-06T12:00:53.901Z,15.59
2016-02-06T12:01:53.872Z,15.51
2016-02-06T12:02:53.876Z,15.39
2016-02-06T12:03:53.863Z,15.6
2016-02-06T12:04:53.819Z,15.46
2016-02-06T12:05:53.837Z,15.38
2016-02-06T12:06:53.808Z,15.54
2016-02-06T12:07:53.765Z,15.56
2016-02-06T12:08:53.736Z,15.59
2016-02-06T12:09:53.739Z,15.66
2016-02-06T12:10:53.698Z,15.67
2016-02-06T12:11:53.716Z,15.72
2016-02-06T12:12:53.657Z,15.72
2016-02-06T12:13:53.643Z,15.76
2016-02-06T12:14:53.615Z,15.76
2016-02-06T12:15:53.607Z,15.76
2016-02-06T12:16:53.579Z,15.76
2016-02-06T12:17:53.549Z,15.75
2016-02-06T12:18:53.522Z,15.74
2016-02-06T12:19:53.525Z,15.74
2016-02-06T12:20:53.497Z,15.76
2016-02-06T12:21:53.468Z,15.75
2016-02-06T12:22:53.455Z,15.74
2016-02-06T12:23:53.428Z,15.79
2016-02-06T12:24:53.400Z,15.64
2016-02-06T12:25:53.387Z,15.72
2016-02-06T12:26:53.390Z,15.74
2016-02-06T12:27:53.345Z,15.82
2016-02-06T12:28:53.366Z,15.86
2016-02-06T12:29:53.337Z,15.81
2016-02-06T12:30:53.277Z,15.89
2016-02-06T12:31:53.281Z,15.93
2016-02-06T12:32:53.268Z,15.93
2016-02-06T12:33:53.286Z,16.01
2016-02-06T12:34:53.211Z,16.06
2016-02-06T12:35:53.197Z,16.04
2016-02-06T12:36:53.202Z,16.09
2016-02-06T12:37:53.141Z,16.04
2016-02-06T12:38:53.129Z,16.14
2016-02-06T12:39:53.521Z,16.26
2016-02-06T12:40:53.197Z,16.18
2016-02-06T12:41:53.059Z,16.35
2016-02-06T12:42:53.046Z,16.31
2016-02-06T12:43:53.048Z,16.41
2016-02-06T12:44:53.145Z,16.5
2016-02-06T12:45:52.992Z,16.45
2016-02-06T12:46:52.978Z,16.55
2016-02-06T12:47:52.950Z,16.63
2016-02-06T12:48:52.937Z,16.65
2016-02-06T12:49:52.940Z,16.68
2016-02-06T12:50:52.897Z,16.67
2016-02-06T12:51:52.870Z,16.77
2016-02-06T12:52:52.856Z,16.85
2016-02-06T12:53:52.828Z,16.83